sensor_id;sensor_type;location;lat;lon;timestamp;temperature;humidity
19920;DHT22;10122;50.074;19.920;2023-02-28T00:00:19;1.50;99.90
19920;DHT22;10122;50.074;19.920;2023-02-28T00:02:45;1.60;99.90
19920;DHT22;10122;50.074;19.920;2023-02-28T00:05:13;1.50;99.90
19920;DHT22;10122;50.074;19.920;2023-02-28T00:07:39;1.50;99.90
19920;DHT22;10122;50.074;19.920;2023-02-28T00:10:07;1.40;99.90
19920;DHT22;10122;50.074;19.920;2023-02-28T00:12:36;1.40;99.90
19920;DHT22;10122;50.074;19.920;2023-02-28T00:15:06;1.40;99.90
19920;DHT22;10122;50.074;19.920;2023-02-28T00:17:32;1.30;99.90
19920;DHT22;10122;50.074;19.920;2023-02-28T00:19:57;1.50;99.90
19920;DHT22;10122;50.074;19.920;2023-02-28T00:22:36;1.60;99.90
19920;DHT22;10122;50.074;19.920;2023-02-28T00:25:03;1.60;99.90
19920;DHT22;10122;50.074;19.920;2023-02-28T00:27:29;1.50;99.90
19920;DHT22;10122;50.074;19.920;2023-02-28T00:29:55;1.40;99.90
19920;DHT22;10122;50.074;19.920;2023-02-28T00:32:20;1.50;99.90
19920;DHT22;10122;50.074;19.920;2023-02-28T00:34:46;1.50;99.90
19920;DHT22;10122;50.074;19.920;2023-02-28T00:37:12;1.50;99.90
19920;DHT22;10122;50.074;19.920;2023-02-28T00:39:39;1.50;99.90
19920;DHT22;10122;50.074;19.920;2023-02-28T00:42:05;1.50;99.90
19920;DHT22;10122;50.074;19.920;2023-02-28T00:44:31;1.50;99.90
19920;DHT22;10122;50.074;19.920;2023-02-28T00:46:58;1.60;99.90
19920;DHT22;10122;50.074;19.920;2023-02-28T00:49:24;1.50;99.90
19920;DHT22;10122;50.074;19.920;2023-02-28T00:51:50;1.50;99.90
19920;DHT22;10122;50.074;19.920;2023-02-28T00:54:16;1.40;99.90
19920;DHT22;10122;50.074;19.920;2023-02-28T00:56:42;1.30;99.90
19920;DHT22;10122;50.074;19.920;2023-02-28T00:59:08;1.20;99.90
19920;DHT22;10122;50.074;19.920;2023-02-28T01:01:34;1.20;99.90
19920;DHT22;10122;50.074;19.920;2023-02-28T01:04:00;1.20;99.90
19920;DHT22;10122;50.074;19.920;2023-02-28T01:06:26;1.30;99.90
19920;DHT22;10122;50.074;19.920;2023-02-28T01:08:52;1.20;99.90
19920;DHT22;10122;50.074;19.920;2023-02-28T01:11:18;1.10;99.90
19920;DHT22;10122;50.074;19.920;2023-02-28T01:13:45;1.00;99.90
19920;DHT22;10122;50.074;19.920;2023-02-28T01:16:12;1.00;99.90
19920;DHT22;10122;50.074;19.920;2023-02-28T01:18:38;0.90;99.90
19920;DHT22;10122;50.074;19.920;2023-02-28T01:21:10;0.90;99.90
19920;DHT22;10122;50.074;19.920;2023-02-28T01:23:36;0.90;99.90
19920;DHT22;10122;50.074;19.920;2023-02-28T01:26:06;0.90;99.90
19920;DHT22;10122;50.074;19.920;2023-02-28T01:28:33;0.90;99.90
19920;DHT22;10122;50.074;19.920;2023-02-28T01:30:59;0.90;99.90
19920;DHT22;10122;50.074;19.920;2023-02-28T01:33:25;0.90;99.90
19920;DHT22;10122;50.074;19.920;2023-02-28T01:36:01;0.90;99.90
19920;DHT22;10122;50.074;19.920;2023-02-28T01:38:27;0.90;99.90
19920;DHT22;10122;50.074;19.920;2023-02-28T01:40:53;0.90;99.90
19920;DHT22;10122;50.074;19.920;2023-02-28T01:43:30;0.90;99.90
19920;DHT22;10122;50.074;19.920;2023-02-28T01:45:57;0.90;99.90
19920;DHT22;10122;50.074;19.920;2023-02-28T01:48:27;0.90;99.90
19920;DHT22;10122;50.074;19.920;2023-02-28T01:50:55;0.90;99.90
19920;DHT22;10122;50.074;19.920;2023-02-28T01:53:32;0.90;99.90
19920;DHT22;10122;50.074;19.920;2023-02-28T01:55:59;1.00;99.90
19920;DHT22;10122;50.074;19.920;2023-02-28T01:58:25;1.00;99.90
19920;DHT22;10122;50.074;19.920;2023-02-28T02:00:51;0.90;99.90
19920;DHT22;10122;50.074;19.920;2023-02-28T02:03:18;0.90;99.90
19920;DHT22;10122;50.074;19.920;2023-02-28T02:05:45;0.90;99.90
19920;DHT22;10122;50.074;19.920;2023-02-28T02:08:20;0.80;99.90
19920;DHT22;10122;50.074;19.920;2023-02-28T02:10:55;0.70;99.90
19920;DHT22;10122;50.074;19.920;2023-02-28T02:19:28;0.60;99.90
19920;DHT22;10122;50.074;19.920;2023-02-28T02:36:24;0.40;99.90
19920;DHT22;10122;50.074;19.920;2023-02-28T02:39:10;0.40;99.90
19920;DHT22;10122;50.074;19.920;2023-02-28T02:41:51;0.30;99.90
19920;DHT22;10122;50.074;19.920;2023-02-28T02:47:13;0.20;99.90
19920;DHT22;10122;50.074;19.920;2023-02-28T02:49:45;0.10;99.90
19920;DHT22;10122;50.074;19.920;2023-02-28T02:52:15;0.10;99.90
19920;DHT22;10122;50.074;19.920;2023-02-28T02:54:45;0.10;99.90
19920;DHT22;10122;50.074;19.920;2023-02-28T02:58:14;0.10;99.90
19920;DHT22;10122;50.074;19.920;2023-02-28T03:00:25;0.10;99.90
19920;DHT22;10122;50.074;19.920;2023-02-28T03:02:52;0.00;99.90
19920;DHT22;10122;50.074;19.920;2023-02-28T03:05:25;0.00;99.90
19920;DHT22;10122;50.074;19.920;2023-02-28T03:07:52;0.00;99.90
19920;DHT22;10122;50.074;19.920;2023-02-28T03:10:38;0.00;99.90
19920;DHT22;10122;50.074;19.920;2023-02-28T03:24:57;0.00;99.90
19920;DHT22;10122;50.074;19.920;2023-02-28T03:27:40;-0.10;99.90
19920;DHT22;10122;50.074;19.920;2023-02-28T03:32:38;-0.10;99.90
19920;DHT22;10122;50.074;19.920;2023-02-28T03:35:19;-0.10;99.90
19920;DHT22;10122;50.074;19.920;2023-02-28T03:37:56;-0.20;99.90
19920;DHT22;10122;50.074;19.920;2023-02-28T03:40:27;-0.20;99.90
19920;DHT22;10122;50.074;19.920;2023-02-28T03:43:00;-0.30;99.90
19920;DHT22;10122;50.074;19.920;2023-02-28T03:45:35;-0.20;99.90
19920;DHT22;10122;50.074;19.920;2023-02-28T03:48:13;-0.20;99.90
19920;DHT22;10122;50.074;19.920;2023-02-28T03:50:43;-0.20;99.90
19920;DHT22;10122;50.074;19.920;2023-02-28T03:53:19;-0.20;99.90
19920;DHT22;10122;50.074;19.920;2023-02-28T03:55:59;-0.20;99.90
19920;DHT22;10122;50.074;19.920;2023-02-28T03:58:29;-0.30;99.90
19920;DHT22;10122;50.074;19.920;2023-02-28T04:01:07;-0.30;99.90
19920;DHT22;10122;50.074;19.920;2023-02-28T04:03:35;-0.30;99.90
19920;DHT22;10122;50.074;19.920;2023-02-28T04:06:02;-0.30;99.90
19920;DHT22;10122;50.074;19.920;2023-02-28T04:08:28;-0.40;99.90
19920;DHT22;10122;50.074;19.920;2023-02-28T04:11:01;-0.40;99.90
19920;DHT22;10122;50.074;19.920;2023-02-28T04:13:28;-0.40;99.90
19920;DHT22;10122;50.074;19.920;2023-02-28T04:15:54;-0.40;99.90
19920;DHT22;10122;50.074;19.920;2023-02-28T04:18:20;-0.40;99.90
19920;DHT22;10122;50.074;19.920;2023-02-28T04:20:45;-0.40;99.90
19920;DHT22;10122;50.074;19.920;2023-02-28T04:23:11;-0.50;99.90
19920;DHT22;10122;50.074;19.920;2023-02-28T04:25:37;-0.50;99.90
19920;DHT22;10122;50.074;19.920;2023-02-28T04:28:02;-0.50;99.90
19920;DHT22;10122;50.074;19.920;2023-02-28T04:30:28;-0.50;99.90
19920;DHT22;10122;50.074;19.920;2023-02-28T04:32:55;-0.50;99.90
19920;DHT22;10122;50.074;19.920;2023-02-28T04:35:20;-0.50;99.90
19920;DHT22;10122;50.074;19.920;2023-02-28T04:37:46;-0.40;99.90
19920;DHT22;10122;50.074;19.920;2023-02-28T04:40:12;-0.40;99.90
19920;DHT22;10122;50.074;19.920;2023-02-28T04:42:37;-0.50;99.90
19920;DHT22;10122;50.074;19.920;2023-02-28T04:45:04;-0.50;99.90
19920;DHT22;10122;50.074;19.920;2023-02-28T04:47:30;-0.60;99.90
19920;DHT22;10122;50.074;19.920;2023-02-28T04:49:56;-0.60;99.90
19920;DHT22;10122;50.074;19.920;2023-02-28T04:52:22;-0.60;99.90
19920;DHT22;10122;50.074;19.920;2023-02-28T04:54:47;-0.60;99.90
19920;DHT22;10122;50.074;19.920;2023-02-28T04:57:13;-0.60;99.90
19920;DHT22;10122;50.074;19.920;2023-02-28T04:59:39;-0.60;99.90
19920;DHT22;10122;50.074;19.920;2023-02-28T05:02:05;-0.70;99.90
19920;DHT22;10122;50.074;19.920;2023-02-28T05:04:35;-0.70;99.90
19920;DHT22;10122;50.074;19.920;2023-02-28T05:07:01;-0.80;99.90
19920;DHT22;10122;50.074;19.920;2023-02-28T05:09:27;-0.70;99.90
19920;DHT22;10122;50.074;19.920;2023-02-28T05:11:54;-0.70;99.90
19920;DHT22;10122;50.074;19.920;2023-02-28T05:14:19;-0.80;99.90
19920;DHT22;10122;50.074;19.920;2023-02-28T05:16:45;-0.80;99.90
19920;DHT22;10122;50.074;19.920;2023-02-28T05:19:11;-0.80;99.90
19920;DHT22;10122;50.074;19.920;2023-02-28T05:21:41;-0.80;99.90
19920;DHT22;10122;50.074;19.920;2023-02-28T05:24:13;-0.80;99.90
19920;DHT22;10122;50.074;19.920;2023-02-28T05:26:41;-0.80;99.90
19920;DHT22;10122;50.074;19.920;2023-02-28T05:29:08;-0.70;99.90
19920;DHT22;10122;50.074;19.920;2023-02-28T05:31:34;-0.70;99.90
19920;DHT22;10122;50.074;19.920;2023-02-28T05:34:00;-0.70;99.90
19920;DHT22;10122;50.074;19.920;2023-02-28T05:36:26;-0.80;99.90
19920;DHT22;10122;50.074;19.920;2023-02-28T05:38:51;-0.80;99.90
19920;DHT22;10122;50.074;19.920;2023-02-28T05:41:19;-0.70;99.90
19920;DHT22;10122;50.074;19.920;2023-02-28T05:43:45;-0.60;99.90
19920;DHT22;10122;50.074;19.920;2023-02-28T05:46:12;-0.50;99.90
19920;DHT22;10122;50.074;19.920;2023-02-28T05:48:40;-0.50;99.90
19920;DHT22;10122;50.074;19.920;2023-02-28T05:51:06;-0.50;99.90
19920;DHT22;10122;50.074;19.920;2023-02-28T05:53:33;-0.40;99.90
19920;DHT22;10122;50.074;19.920;2023-02-28T05:55:59;-0.30;99.90
19920;DHT22;10122;50.074;19.920;2023-02-28T05:58:25;-0.20;99.90
19920;DHT22;10122;50.074;19.920;2023-02-28T06:00:54;-0.10;99.90
19920;DHT22;10122;50.074;19.920;2023-02-28T06:03:20;0.20;99.90
19920;DHT22;10122;50.074;19.920;2023-02-28T06:05:46;0.30;99.90
19920;DHT22;10122;50.074;19.920;2023-02-28T06:08:12;0.40;99.90
19920;DHT22;10122;50.074;19.920;2023-02-28T06:10:38;0.40;99.90
19920;DHT22;10122;50.074;19.920;2023-02-28T06:13:05;0.50;99.90
19920;DHT22;10122;50.074;19.920;2023-02-28T06:15:31;0.60;99.90
19920;DHT22;10122;50.074;19.920;2023-02-28T06:17:57;0.70;99.90
19920;DHT22;10122;50.074;19.920;2023-02-28T06:20:24;0.80;99.90
19920;DHT22;10122;50.074;19.920;2023-02-28T06:22:50;0.90;99.90
19920;DHT22;10122;50.074;19.920;2023-02-28T06:25:17;0.90;99.90
19920;DHT22;10122;50.074;19.920;2023-02-28T06:27:43;1.00;99.90
19920;DHT22;10122;50.074;19.920;2023-02-28T06:30:10;1.00;99.90
19920;DHT22;10122;50.074;19.920;2023-02-28T06:32:36;1.00;99.90
19920;DHT22;10122;50.074;19.920;2023-02-28T06:35:03;0.80;99.90
19920;DHT22;10122;50.074;19.920;2023-02-28T06:37:31;0.80;99.90
19920;DHT22;10122;50.074;19.920;2023-02-28T06:39:56;1.00;99.90
19920;DHT22;10122;50.074;19.920;2023-02-28T06:42:24;1.10;99.90
19920;DHT22;10122;50.074;19.920;2023-02-28T06:44:55;1.20;99.90
19920;DHT22;10122;50.074;19.920;2023-02-28T06:47:21;1.00;99.90
19920;DHT22;10122;50.074;19.920;2023-02-28T06:49:47;0.90;99.90
19920;DHT22;10122;50.074;19.920;2023-02-28T06:52:14;0.90;99.90
19920;DHT22;10122;50.074;19.920;2023-02-28T06:54:40;0.70;99.90
19920;DHT22;10122;50.074;19.920;2023-02-28T06:57:06;0.80;99.90
19920;DHT22;10122;50.074;19.920;2023-02-28T06:59:32;0.80;99.90
19920;DHT22;10122;50.074;19.920;2023-02-28T07:01:58;0.80;99.90
19920;DHT22;10122;50.074;19.920;2023-02-28T07:04:24;0.70;99.90
19920;DHT22;10122;50.074;19.920;2023-02-28T07:06:50;0.70;99.90
19920;DHT22;10122;50.074;19.920;2023-02-28T07:09:15;0.60;99.90
19920;DHT22;10122;50.074;19.920;2023-02-28T07:11:41;0.60;99.90
19920;DHT22;10122;50.074;19.920;2023-02-28T07:14:08;0.60;99.90
19920;DHT22;10122;50.074;19.920;2023-02-28T07:16:35;0.70;99.90
19920;DHT22;10122;50.074;19.920;2023-02-28T07:19:01;0.80;99.90
19920;DHT22;10122;50.074;19.920;2023-02-28T07:21:26;0.90;99.90
19920;DHT22;10122;50.074;19.920;2023-02-28T07:23:52;0.90;99.90
19920;DHT22;10122;50.074;19.920;2023-02-28T07:26:19;0.70;99.90
19920;DHT22;10122;50.074;19.920;2023-02-28T07:28:47;0.70;99.90
19920;DHT22;10122;50.074;19.920;2023-02-28T07:31:13;0.70;99.90
19920;DHT22;10122;50.074;19.920;2023-02-28T07:33:40;0.80;99.90
19920;DHT22;10122;50.074;19.920;2023-02-28T07:36:12;0.80;99.90
19920;DHT22;10122;50.074;19.920;2023-02-28T07:38:44;0.90;99.90
19920;DHT22;10122;50.074;19.920;2023-02-28T07:41:10;1.10;99.90
19920;DHT22;10122;50.074;19.920;2023-02-28T07:43:36;1.30;99.90
19920;DHT22;10122;50.074;19.920;2023-02-28T07:46:04;1.20;99.90
19920;DHT22;10122;50.074;19.920;2023-02-28T07:48:30;1.10;99.90
19920;DHT22;10122;50.074;19.920;2023-02-28T07:50:56;1.40;99.90
19920;DHT22;10122;50.074;19.920;2023-02-28T07:53:22;1.60;99.90
19920;DHT22;10122;50.074;19.920;2023-02-28T07:55:48;1.70;99.90
19920;DHT22;10122;50.074;19.920;2023-02-28T07:58:14;1.80;99.90
19920;DHT22;10122;50.074;19.920;2023-02-28T08:00:40;1.60;99.90
19920;DHT22;10122;50.074;19.920;2023-02-28T08:03:05;1.50;99.90
19920;DHT22;10122;50.074;19.920;2023-02-28T08:05:31;1.60;99.90
19920;DHT22;10122;50.074;19.920;2023-02-28T08:07:57;1.90;99.90
19920;DHT22;10122;50.074;19.920;2023-02-28T08:10:23;2.20;99.90
19920;DHT22;10122;50.074;19.920;2023-02-28T08:12:49;2.40;99.90
19920;DHT22;10122;50.074;19.920;2023-02-28T08:15:15;2.60;99.90
19920;DHT22;10122;50.074;19.920;2023-02-28T08:17:41;2.60;99.90
19920;DHT22;10122;50.074;19.920;2023-02-28T08:20:07;2.80;99.90
19920;DHT22;10122;50.074;19.920;2023-02-28T08:22:34;3.00;99.90
19920;DHT22;10122;50.074;19.920;2023-02-28T08:25:00;2.90;99.90
19920;DHT22;10122;50.074;19.920;2023-02-28T08:27:25;2.90;99.90
19920;DHT22;10122;50.074;19.920;2023-02-28T08:29:51;2.90;99.90
19920;DHT22;10122;50.074;19.920;2023-02-28T08:32:17;2.90;99.90
19920;DHT22;10122;50.074;19.920;2023-02-28T08:34:42;2.90;99.90
19920;DHT22;10122;50.074;19.920;2023-02-28T08:37:08;3.10;99.90
19920;DHT22;10122;50.074;19.920;2023-02-28T08:39:35;3.20;99.90
19920;DHT22;10122;50.074;19.920;2023-02-28T08:42:01;3.30;99.90
19920;DHT22;10122;50.074;19.920;2023-02-28T08:44:27;3.20;99.90
19920;DHT22;10122;50.074;19.920;2023-02-28T08:46:53;3.20;99.90
19920;DHT22;10122;50.074;19.920;2023-02-28T08:49:19;3.20;99.90
19920;DHT22;10122;50.074;19.920;2023-02-28T08:51:44;3.50;99.90
19920;DHT22;10122;50.074;19.920;2023-02-28T08:54:10;3.50;99.90
19920;DHT22;10122;50.074;19.920;2023-02-28T08:56:41;3.60;99.90
19920;DHT22;10122;50.074;19.920;2023-02-28T08:59:09;3.90;99.90
19920;DHT22;10122;50.074;19.920;2023-02-28T09:01:35;4.30;99.90
19920;DHT22;10122;50.074;19.920;2023-02-28T09:04:02;4.50;99.90
19920;DHT22;10122;50.074;19.920;2023-02-28T09:06:28;5.10;99.90
19920;DHT22;10122;50.074;19.920;2023-02-28T09:08:57;5.70;99.90
19920;DHT22;10122;50.074;19.920;2023-02-28T09:11:27;6.00;99.90
19920;DHT22;10122;50.074;19.920;2023-02-28T09:13:53;6.70;99.90
19920;DHT22;10122;50.074;19.920;2023-02-28T09:16:21;7.20;99.90
19920;DHT22;10122;50.074;19.920;2023-02-28T09:18:47;7.70;99.90
19920;DHT22;10122;50.074;19.920;2023-02-28T09:21:15;8.20;99.90
19920;DHT22;10122;50.074;19.920;2023-02-28T09:23:43;8.40;99.90
19920;DHT22;10122;50.074;19.920;2023-02-28T09:26:14;8.50;99.10
19920;DHT22;10122;50.074;19.920;2023-02-28T09:28:41;8.30;98.80
19920;DHT22;10122;50.074;19.920;2023-02-28T09:31:10;8.30;98.20
19920;DHT22;10122;50.074;19.920;2023-02-28T09:33:37;8.40;98.20
19920;DHT22;10122;50.074;19.920;2023-02-28T09:36:02;8.50;97.20
19920;DHT22;10122;50.074;19.920;2023-02-28T09:38:29;8.40;99.90
19920;DHT22;10122;50.074;19.920;2023-02-28T09:40:58;8.60;95.40
19920;DHT22;10122;50.074;19.920;2023-02-28T09:43:28;8.50;98.90
19920;DHT22;10122;50.074;19.920;2023-02-28T09:46:49;8.70;99.90
19920;DHT22;10122;50.074;19.920;2023-02-28T09:49:11;9.20;99.40
19920;DHT22;10122;50.074;19.920;2023-02-28T09:54:22;8.70;92.20
19920;DHT22;10122;50.074;19.920;2023-02-28T09:56:51;7.80;94.50
19920;DHT22;10122;50.074;19.920;2023-02-28T09:59:35;8.10;99.90
19920;DHT22;10122;50.074;19.920;2023-02-28T10:04:51;8.70;96.30
19920;DHT22;10122;50.074;19.920;2023-02-28T10:07:47;8.10;91.90
19920;DHT22;10122;50.074;19.920;2023-02-28T10:10:26;7.70;94.30
19920;DHT22;10122;50.074;19.920;2023-02-28T10:12:56;7.60;93.00
19920;DHT22;10122;50.074;19.920;2023-02-28T10:15:26;7.10;95.40
19920;DHT22;10122;50.074;19.920;2023-02-28T10:18:06;7.00;94.30
19920;DHT22;10122;50.074;19.920;2023-02-28T10:20:38;7.00;97.00
19920;DHT22;10122;50.074;19.920;2023-02-28T10:26:00;8.10;94.70
19920;DHT22;10122;50.074;19.920;2023-02-28T10:28:27;7.80;95.60
19920;DHT22;10122;50.074;19.920;2023-02-28T10:30:55;7.80;96.50
19920;DHT22;10122;50.074;19.920;2023-02-28T10:33:30;7.60;94.40
19920;DHT22;10122;50.074;19.920;2023-02-28T10:35:56;7.10;92.90
19920;DHT22;10122;50.074;19.920;2023-02-28T10:38:25;6.70;93.80
19920;DHT22;10122;50.074;19.920;2023-02-28T10:40:51;6.40;95.50
19920;DHT22;10122;50.074;19.920;2023-02-28T10:43:28;6.60;95.80
19920;DHT22;10122;50.074;19.920;2023-02-28T10:45:57;7.20;97.90
19920;DHT22;10122;50.074;19.920;2023-02-28T10:48:33;7.60;94.20
19920;DHT22;10122;50.074;19.920;2023-02-28T10:51:00;7.40;95.80
19920;DHT22;10122;50.074;19.920;2023-02-28T10:53:52;7.70;94.90
19920;DHT22;10122;50.074;19.920;2023-02-28T10:56:20;7.40;94.00
19920;DHT22;10122;50.074;19.920;2023-02-28T11:01:21;7.30;93.80
19920;DHT22;10122;50.074;19.920;2023-02-28T11:03:47;7.10;96.50
19920;DHT22;10122;50.074;19.920;2023-02-28T11:06:22;7.30;94.50
19920;DHT22;10122;50.074;19.920;2023-02-28T11:09:13;7.00;94.00
19920;DHT22;10122;50.074;19.920;2023-02-28T11:11:45;7.00;96.40
19920;DHT22;10122;50.074;19.920;2023-02-28T11:14:33;6.70;94.70
19920;DHT22;10122;50.074;19.920;2023-02-28T11:17:14;6.60;95.80
19920;DHT22;10122;50.074;19.920;2023-02-28T11:19:49;6.60;95.90
19920;DHT22;10122;50.074;19.920;2023-02-28T11:22:22;6.80;95.40
19920;DHT22;10122;50.074;19.920;2023-02-28T11:24:52;6.60;93.70
19920;DHT22;10122;50.074;19.920;2023-02-28T11:29:57;5.40;95.20
19920;DHT22;10122;50.074;19.920;2023-02-28T11:32:25;5.50;95.80
19920;DHT22;10122;50.074;19.920;2023-02-28T11:37:38;5.10;95.30
19920;DHT22;10122;50.074;19.920;2023-02-28T11:40:41;4.90;98.30
19920;DHT22;10122;50.074;19.920;2023-02-28T11:46:13;5.50;95.30
19920;DHT22;10122;50.074;19.920;2023-02-28T11:49:10;5.20;97.10
19920;DHT22;10122;50.074;19.920;2023-02-28T11:51:52;5.40;97.00
19920;DHT22;10122;50.074;19.920;2023-02-28T12:00:09;5.00;96.10
19920;DHT22;10122;50.074;19.920;2023-02-28T12:05:53;4.80;97.10
19920;DHT22;10122;50.074;19.920;2023-02-28T12:19:22;5.40;96.30
19920;DHT22;10122;50.074;19.920;2023-02-28T12:24:42;5.60;97.20
19920;DHT22;10122;50.074;19.920;2023-02-28T12:27:13;5.70;97.50
19920;DHT22;10122;50.074;19.920;2023-02-28T12:29:51;5.80;97.30
19920;DHT22;10122;50.074;19.920;2023-02-28T12:32:37;5.80;95.60
19920;DHT22;10122;50.074;19.920;2023-02-28T12:35:26;5.40;96.30
19920;DHT22;10122;50.074;19.920;2023-02-28T12:40:25;5.50;97.90
19920;DHT22;10122;50.074;19.920;2023-02-28T12:42:56;5.40;96.20
19920;DHT22;10122;50.074;19.920;2023-02-28T12:45:26;5.40;97.80
19920;DHT22;10122;50.074;19.920;2023-02-28T12:47:59;5.50;97.70
19920;DHT22;10122;50.074;19.920;2023-02-28T12:50:27;5.60;96.00
19920;DHT22;10122;50.074;19.920;2023-02-28T12:55:48;5.40;97.80
19920;DHT22;10122;50.074;19.920;2023-02-28T12:58:36;5.60;97.70
19920;DHT22;10122;50.074;19.920;2023-02-28T13:11:39;5.50;96.60
19920;DHT22;10122;50.074;19.920;2023-02-28T13:14:26;5.50;96.00
19920;DHT22;10122;50.074;19.920;2023-02-28T13:19:28;5.80;96.50
19920;DHT22;10122;50.074;19.920;2023-02-28T13:21:56;5.60;95.40
19920;DHT22;10122;50.074;19.920;2023-02-28T13:24:55;5.30;96.00
19920;DHT22;10122;50.074;19.920;2023-02-28T13:27:35;5.30;97.20
19920;DHT22;10122;50.074;19.920;2023-02-28T13:33:27;5.50;97.40
19920;DHT22;10122;50.074;19.920;2023-02-28T13:36:22;5.50;98.20
19920;DHT22;10122;50.074;19.920;2023-02-28T13:38:56;5.80;97.50
19920;DHT22;10122;50.074;19.920;2023-02-28T14:03:51;6.40;97.90
19920;DHT22;10122;50.074;19.920;2023-02-28T14:09:18;6.10;97.70
19920;DHT22;10122;50.074;19.920;2023-02-28T14:11:47;5.90;98.20
19920;DHT22;10122;50.074;19.920;2023-02-28T14:17:08;6.00;98.70
19920;DHT22;10122;50.074;19.920;2023-02-28T14:19:38;5.90;97.50
19920;DHT22;10122;50.074;19.920;2023-02-28T14:27:58;5.60;97.80
19920;DHT22;10122;50.074;19.920;2023-02-28T14:33:46;5.60;98.10
19920;DHT22;10122;50.074;19.920;2023-02-28T14:36:36;5.70;98.30
19920;DHT22;10122;50.074;19.920;2023-02-28T14:39:16;5.70;98.10
19920;DHT22;10122;50.074;19.920;2023-02-28T14:41:44;5.20;98.40
19920;DHT22;10122;50.074;19.920;2023-02-28T14:44:25;5.00;98.80
19920;DHT22;10122;50.074;19.920;2023-02-28T14:47:02;4.90;99.90
19920;DHT22;10122;50.074;19.920;2023-02-28T14:49:42;5.00;99.70
19920;DHT22;10122;50.074;19.920;2023-02-28T14:52:17;5.10;99.40
19920;DHT22;10122;50.074;19.920;2023-02-28T14:54:44;5.10;99.40
19920;DHT22;10122;50.074;19.920;2023-02-28T14:57:32;5.30;99.90
19920;DHT22;10122;50.074;19.920;2023-02-28T15:02:48;5.50;99.90
19920;DHT22;10122;50.074;19.920;2023-02-28T15:07:42;5.60;99.90
19920;DHT22;10122;50.074;19.920;2023-02-28T15:10:23;5.50;99.90
19920;DHT22;10122;50.074;19.920;2023-02-28T15:12:58;5.60;99.90
19920;DHT22;10122;50.074;19.920;2023-02-28T15:15:33;5.70;99.90
19920;DHT22;10122;50.074;19.920;2023-02-28T15:18:03;5.60;99.90
19920;DHT22;10122;50.074;19.920;2023-02-28T15:20:31;5.40;99.90
19920;DHT22;10122;50.074;19.920;2023-02-28T15:22:58;5.30;99.90
19920;DHT22;10122;50.074;19.920;2023-02-28T15:25:25;5.30;99.90
19920;DHT22;10122;50.074;19.920;2023-02-28T15:27:53;5.30;99.90
19920;DHT22;10122;50.074;19.920;2023-02-28T15:30:30;5.20;99.90
19920;DHT22;10122;50.074;19.920;2023-02-28T15:33:25;4.90;99.90
19920;DHT22;10122;50.074;19.920;2023-02-28T15:36:09;4.80;99.90
19920;DHT22;10122;50.074;19.920;2023-02-28T15:38:36;4.80;99.90
19920;DHT22;10122;50.074;19.920;2023-02-28T15:41:03;4.80;99.90
19920;DHT22;10122;50.074;19.920;2023-02-28T15:43:36;4.80;99.90
19920;DHT22;10122;50.074;19.920;2023-02-28T15:46:08;4.90;99.90
19920;DHT22;10122;50.074;19.920;2023-02-28T15:48:53;4.60;99.90
19920;DHT22;10122;50.074;19.920;2023-02-28T15:51:35;4.60;99.90
19920;DHT22;10122;50.074;19.920;2023-02-28T15:54:12;4.40;99.90
19920;DHT22;10122;50.074;19.920;2023-02-28T15:56:45;4.30;99.90
19920;DHT22;10122;50.074;19.920;2023-02-28T15:59:31;4.10;99.90
19920;DHT22;10122;50.074;19.920;2023-02-28T16:04:57;4.10;99.90
19920;DHT22;10122;50.074;19.920;2023-02-28T16:07:23;4.00;99.90
19920;DHT22;10122;50.074;19.920;2023-02-28T16:09:50;4.00;99.90
19920;DHT22;10122;50.074;19.920;2023-02-28T16:12:16;4.00;99.90
19920;DHT22;10122;50.074;19.920;2023-02-28T16:14:42;4.00;99.90
19920;DHT22;10122;50.074;19.920;2023-02-28T16:17:23;4.00;99.90
19920;DHT22;10122;50.074;19.920;2023-02-28T16:19:50;3.90;99.90
19920;DHT22;10122;50.074;19.920;2023-02-28T16:22:15;3.90;99.90
19920;DHT22;10122;50.074;19.920;2023-02-28T16:24:41;3.80;99.90
19920;DHT22;10122;50.074;19.920;2023-02-28T16:27:24;3.70;99.90
19920;DHT22;10122;50.074;19.920;2023-02-28T16:29:53;3.60;99.90
19920;DHT22;10122;50.074;19.920;2023-02-28T16:32:19;3.60;99.90
19920;DHT22;10122;50.074;19.920;2023-02-28T16:34:45;3.50;99.90
19920;DHT22;10122;50.074;19.920;2023-02-28T16:37:16;3.50;99.90
19920;DHT22;10122;50.074;19.920;2023-02-28T16:39:43;3.50;99.90
19920;DHT22;10122;50.074;19.920;2023-02-28T16:42:26;3.40;99.90
19920;DHT22;10122;50.074;19.920;2023-02-28T16:44:53;3.40;99.90
19920;DHT22;10122;50.074;19.920;2023-02-28T16:47:19;3.30;99.90
19920;DHT22;10122;50.074;19.920;2023-02-28T16:49:45;3.30;99.90
19920;DHT22;10122;50.074;19.920;2023-02-28T16:52:13;3.20;99.90
19920;DHT22;10122;50.074;19.920;2023-02-28T16:54:40;3.20;99.90
19920;DHT22;10122;50.074;19.920;2023-02-28T16:57:08;3.20;99.90
19920;DHT22;10122;50.074;19.920;2023-02-28T16:59:37;3.20;99.90
19920;DHT22;10122;50.074;19.920;2023-02-28T17:02:10;3.20;99.90
19920;DHT22;10122;50.074;19.920;2023-02-28T17:04:37;3.10;99.90
19920;DHT22;10122;50.074;19.920;2023-02-28T17:07:03;3.00;99.90
19920;DHT22;10122;50.074;19.920;2023-02-28T17:09:28;3.00;99.90
19920;DHT22;10122;50.074;19.920;2023-02-28T17:11:54;2.90;99.90
19920;DHT22;10122;50.074;19.920;2023-02-28T17:14:20;2.90;99.90
19920;DHT22;10122;50.074;19.920;2023-02-28T17:16:46;2.90;99.90
19920;DHT22;10122;50.074;19.920;2023-02-28T17:19:14;2.90;99.90
19920;DHT22;10122;50.074;19.920;2023-02-28T17:21:44;2.90;99.90
19920;DHT22;10122;50.074;19.920;2023-02-28T17:24:10;2.90;99.90
19920;DHT22;10122;50.074;19.920;2023-02-28T17:26:40;2.90;99.90
19920;DHT22;10122;50.074;19.920;2023-02-28T17:29:19;2.80;99.90
19920;DHT22;10122;50.074;19.920;2023-02-28T17:31:45;2.80;99.90
19920;DHT22;10122;50.074;19.920;2023-02-28T17:34:11;2.80;99.90
19920;DHT22;10122;50.074;19.920;2023-02-28T17:36:46;2.80;99.90
19920;DHT22;10122;50.074;19.920;2023-02-28T17:39:13;2.80;99.90
19920;DHT22;10122;50.074;19.920;2023-02-28T17:41:42;2.80;99.90
19920;DHT22;10122;50.074;19.920;2023-02-28T17:44:08;2.70;99.90
19920;DHT22;10122;50.074;19.920;2023-02-28T17:46:34;2.70;99.90
19920;DHT22;10122;50.074;19.920;2023-02-28T17:49:00;2.70;99.90
19920;DHT22;10122;50.074;19.920;2023-02-28T17:51:26;2.60;99.90
19920;DHT22;10122;50.074;19.920;2023-02-28T17:53:52;2.60;99.90
19920;DHT22;10122;50.074;19.920;2023-02-28T17:56:21;2.60;99.90
19920;DHT22;10122;50.074;19.920;2023-02-28T17:58:48;2.50;99.90
19920;DHT22;10122;50.074;19.920;2023-02-28T18:01:15;2.50;99.90
19920;DHT22;10122;50.074;19.920;2023-02-28T18:03:40;2.50;99.90
19920;DHT22;10122;50.074;19.920;2023-02-28T18:06:08;2.50;99.90
19920;DHT22;10122;50.074;19.920;2023-02-28T18:08:37;2.60;99.90
19920;DHT22;10122;50.074;19.920;2023-02-28T18:11:03;2.60;99.90